Cheney, KS (67025)

7:23 PM CDT on August 27, 2015 (GMT -0500)
WSU Field Station | | Change Station
CLOSE
Current Station
Personal Weather Station
Location: Viola, KS
Elevation: 1332 ft
Nearby Weather Stations

Elev 1332 ft 37.53 °N, 97.67 °W | Updated 23 seconds ago

Partly Cloudy
Partly Cloudy
83.0 °F
Feels Like 86 °F
N
5.0
Wind Variable Wind from SW
Gusts 6.0 mph

Today
High -- | Low -- °F
--% Chance of Precip.
Yesterday
High -- | Low -- °F
Precip. -- in
6:56 AM 8:07 PM
Waxing Gibbous, 95% visible
Pressure 29.87 in
Visibility 10.0 miles
Clouds Few 10000 ft
Mostly Cloudy 20000 ft
Heat Index 86 °F
Dew Point 68 °F
Humidity 61%
Rainfall 0.00 in
Snow Depth Not available.
UV 0.0 out of 12
Pollen 11.00 out of 12
Air Quality Not available.
Flu Activity Not available.
METAR KICT 272353Z 17015G24KT 10SM FEW100 BKN200 29/18 A2991 RMK AO2 PK WND 18027/2334 SLP115 T02940178 10317 20272 56019
Pressure 29.87 in
Visibility 10.0 miles
Clouds Few 10000 ft
Mostly Cloudy 20000 ft
Heat Index 86 °F
Dew Point 68 °F
Humidity 61%
Rainfall 0.00 in
Snow Depth Not available.
UV 0.0 out of 12
Pollen 11.00 out of 12
Air Quality Not available.
Flu Activity Not available.
METAR KICT 272353Z 17015G24KT 10SM FEW100 BKN200 29/18 A2991 RMK AO2 PK WND 18027/2334 SLP115 T02940178 10317 20272 56019

10-Day Weather Forecast

×

Almanac

Astronomy

Aug. 27, 2015 Rise Set
Actual Time
Civil Twilight
Nautical Twilight
Astronomical Twilight
Moon
Length of Visible Light
Length of Day
Tomorrow will be .
, % of the Moon is Illuminated

Today's Extremes

State Highs State Lows

Community

WunderPhotos

Upload Photos

1,850,272 photos uploaded!

WunderBlogs® & News

Nearby

Air Quality

  Air Quality AQ Index Pollutant
Not available.

Snow Depth

Station Depth Elevation

Earthquake Activity

City Distance Mag. Time & Date
Minimum magnitude displayed is 2.5.

Coastal Water Temperatures

Place Temperature

Stations

Nearby Weather Stations

Station Location Temp. Windchill Dew Point Humidity Wind Precip. Elev Updated Type